sensor_id;sensor_type;location;lat;lon;timestamp;P1;durP1;ratioP1;P2;durP2;ratioP2
4748;SDS011;2388;53.582;9.962;2023-03-01T00:01:07;7.07;;;5.15;;
4748;SDS011;2388;53.582;9.962;2023-03-01T00:03:35;7.57;;;5.40;;
4748;SDS011;2388;53.582;9.962;2023-03-01T00:06:01;10.80;;;5.90;;
4748;SDS011;2388;53.582;9.962;2023-03-01T00:08:28;7.82;;;6.28;;
4748;SDS011;2388;53.582;9.962;2023-03-01T00:11:06;10.00;;;5.67;;
4748;SDS011;2388;53.582;9.962;2023-03-01T00:13:36;6.77;;;5.27;;
4748;SDS011;2388;53.582;9.962;2023-03-01T00:16:03;12.20;;;5.47;;
4748;SDS011;2388;53.582;9.962;2023-03-01T00:18:33;7.67;;;5.27;;
4748;SDS011;2388;53.582;9.962;2023-03-01T00:20:59;7.10;;;4.87;;
4748;SDS011;2388;53.582;9.962;2023-03-01T00:23:24;9.07;;;4.93;;
4748;SDS011;2388;53.582;9.962;2023-03-01T00:25:50;8.63;;;5.47;;
4748;SDS011;2388;53.582;9.962;2023-03-01T00:28:16;7.83;;;4.80;;
4748;SDS011;2388;53.582;9.962;2023-03-01T00:30:42;10.23;;;5.88;;
4748;SDS011;2388;53.582;9.962;2023-03-01T00:33:08;7.50;;;5.17;;
4748;SDS011;2388;53.582;9.962;2023-03-01T00:35:33;6.80;;;5.07;;
4748;SDS011;2388;53.582;9.962;2023-03-01T00:37:59;8.33;;;5.63;;
4748;SDS011;2388;53.582;9.962;2023-03-01T00:40:25;7.40;;;5.50;;
4748;SDS011;2388;53.582;9.962;2023-03-01T00:42:52;5.90;;;4.07;;
4748;SDS011;2388;53.582;9.962;2023-03-01T00:45:17;7.17;;;5.30;;
4748;SDS011;2388;53.582;9.962;2023-03-01T00:47:43;5.47;;;4.60;;
4748;SDS011;2388;53.582;9.962;2023-03-01T00:50:09;6.50;;;4.13;;
4748;SDS011;2388;53.582;9.962;2023-03-01T00:52:35;6.63;;;4.47;;
4748;SDS011;2388;53.582;9.962;2023-03-01T00:55:01;4.90;;;3.87;;
4748;SDS011;2388;53.582;9.962;2023-03-01T00:57:27;5.80;;;4.33;;
4748;SDS011;2388;53.582;9.962;2023-03-01T00:59:52;5.10;;;3.70;;
4748;SDS011;2388;53.582;9.962;2023-03-01T01:02:18;9.43;;;4.30;;
4748;SDS011;2388;53.582;9.962;2023-03-01T01:04:45;4.45;;;3.80;;
4748;SDS011;2388;53.582;9.962;2023-03-01T01:07:11;5.65;;;3.80;;
4748;SDS011;2388;53.582;9.962;2023-03-01T01:09:37;6.22;;;4.25;;
4748;SDS011;2388;53.582;9.962;2023-03-01T01:12:03;5.63;;;4.07;;
4748;SDS011;2388;53.582;9.962;2023-03-01T01:14:29;6.30;;;4.33;;
4748;SDS011;2388;53.582;9.962;2023-03-01T01:16:54;4.83;;;3.63;;
4748;SDS011;2388;53.582;9.962;2023-03-01T01:19:20;5.10;;;3.93;;
4748;SDS011;2388;53.582;9.962;2023-03-01T01:21:46;4.23;;;3.30;;
4748;SDS011;2388;53.582;9.962;2023-03-01T01:24:13;5.80;;;4.10;;
4748;SDS011;2388;53.582;9.962;2023-03-01T01:26:39;8.35;;;3.90;;
4748;SDS011;2388;53.582;9.962;2023-03-01T01:29:06;3.83;;;3.53;;
4748;SDS011;2388;53.582;9.962;2023-03-01T01:31:32;3.70;;;3.40;;
4748;SDS011;2388;53.582;9.962;2023-03-01T01:33:59;3.70;;;3.40;;
4748;SDS011;2388;53.582;9.962;2023-03-01T01:36:26;5.47;;;4.27;;
4748;SDS011;2388;53.582;9.962;2023-03-01T01:38:52;5.03;;;4.10;;
4748;SDS011;2388;53.582;9.962;2023-03-01T01:41:18;6.77;;;3.80;;
4748;SDS011;2388;53.582;9.962;2023-03-01T01:43:46;4.47;;;3.88;;
4748;SDS011;2388;53.582;9.962;2023-03-01T01:46:28;5.68;;;4.30;;
4748;SDS011;2388;53.582;9.962;2023-03-01T01:49:00;4.40;;;3.95;;
4748;SDS011;2388;53.582;9.962;2023-03-01T01:51:31;9.82;;;4.60;;
4748;SDS011;2388;53.582;9.962;2023-03-01T01:54:03;8.65;;;4.70;;
4748;SDS011;2388;53.582;9.962;2023-03-01T01:56:35;4.95;;;4.45;;
4748;SDS011;2388;53.582;9.962;2023-03-01T01:59:02;3.65;;;3.35;;
4748;SDS011;2388;53.582;9.962;2023-03-01T02:01:28;6.90;;;4.00;;
4748;SDS011;2388;53.582;9.962;2023-03-01T02:03:54;4.40;;;4.00;;
4748;SDS011;2388;53.582;9.962;2023-03-01T02:06:29;5.87;;;4.00;;
4748;SDS011;2388;53.582;9.962;2023-03-01T02:09:03;6.00;;;4.15;;
4748;SDS011;2388;53.582;9.962;2023-03-01T02:11:36;4.35;;;3.95;;
4748;SDS011;2388;53.582;9.962;2023-03-01T02:14:02;4.78;;;4.15;;
4748;SDS011;2388;53.582;9.962;2023-03-01T02:16:28;4.03;;;3.63;;
4748;SDS011;2388;53.582;9.962;2023-03-01T02:18:55;4.88;;;4.20;;
4748;SDS011;2388;53.582;9.962;2023-03-01T02:24:24;6.38;;;4.25;;
4748;SDS011;2388;53.582;9.962;2023-03-01T02:27:04;9.15;;;4.35;;
4748;SDS011;2388;53.582;9.962;2023-03-01T02:29:40;6.05;;;4.40;;
4748;SDS011;2388;53.582;9.962;2023-03-01T02:32:08;4.72;;;4.25;;
4748;SDS011;2388;53.582;9.962;2023-03-01T02:34:37;9.25;;;4.57;;
4748;SDS011;2388;53.582;9.962;2023-03-01T02:37:05;4.72;;;4.20;;
4748;SDS011;2388;53.582;9.962;2023-03-01T02:39:37;8.65;;;4.40;;
4748;SDS011;2388;53.582;9.962;2023-03-01T02:42:10;4.53;;;3.85;;
4748;SDS011;2388;53.582;9.962;2023-03-01T02:44:38;6.05;;;3.95;;
4748;SDS011;2388;53.582;9.962;2023-03-01T02:47:03;3.90;;;3.60;;
4748;SDS011;2388;53.582;9.962;2023-03-01T02:49:31;4.13;;;3.50;;
4748;SDS011;2388;53.582;9.962;2023-03-01T02:52:16;4.65;;;3.90;;
4748;SDS011;2388;53.582;9.962;2023-03-01T02:57:21;3.92;;;3.30;;
4748;SDS011;2388;53.582;9.962;2023-03-01T02:59:48;5.80;;;3.20;;
4748;SDS011;2388;53.582;9.962;2023-03-01T03:05:17;6.00;;;3.47;;
4748;SDS011;2388;53.582;9.962;2023-03-01T03:07:45;5.22;;;3.13;;
4748;SDS011;2388;53.582;9.962;2023-03-01T03:10:14;6.10;;;3.45;;
4748;SDS011;2388;53.582;9.962;2023-03-01T03:12:41;8.23;;;3.28;;
4748;SDS011;2388;53.582;9.962;2023-03-01T03:15:08;3.47;;;2.83;;
4748;SDS011;2388;53.582;9.962;2023-03-01T03:17:38;2.40;;;2.20;;
4748;SDS011;2388;53.582;9.962;2023-03-01T03:20:06;4.53;;;3.05;;
4748;SDS011;2388;53.582;9.962;2023-03-01T03:22:36;3.00;;;2.80;;
4748;SDS011;2388;53.582;9.962;2023-03-01T03:25:03;4.03;;;3.08;;
4748;SDS011;2388;53.582;9.962;2023-03-01T03:27:29;3.80;;;2.70;;
4748;SDS011;2388;53.582;9.962;2023-03-01T03:29:56;5.75;;;2.85;;
4748;SDS011;2388;53.582;9.962;2023-03-01T03:32:22;3.20;;;2.70;;
4748;SDS011;2388;53.582;9.962;2023-03-01T03:34:47;2.43;;;2.23;;
4748;SDS011;2388;53.582;9.962;2023-03-01T03:37:14;5.28;;;2.85;;
4748;SDS011;2388;53.582;9.962;2023-03-01T03:39:59;2.63;;;2.47;;
4748;SDS011;2388;53.582;9.962;2023-03-01T03:42:25;2.57;;;2.43;;
4748;SDS011;2388;53.582;9.962;2023-03-01T03:44:50;3.60;;;2.60;;
4748;SDS011;2388;53.582;9.962;2023-03-01T03:47:16;2.90;;;2.70;;
4748;SDS011;2388;53.582;9.962;2023-03-01T03:49:41;6.63;;;2.60;;
4748;SDS011;2388;53.582;9.962;2023-03-01T03:52:07;3.00;;;2.23;;
4748;SDS011;2388;53.582;9.962;2023-03-01T03:54:38;5.03;;;2.50;;
4748;SDS011;2388;53.582;9.962;2023-03-01T03:57:05;3.75;;;2.75;;
4748;SDS011;2388;53.582;9.962;2023-03-01T03:59:31;4.97;;;2.13;;
4748;SDS011;2388;53.582;9.962;2023-03-01T04:01:56;2.23;;;2.03;;
4748;SDS011;2388;53.582;9.962;2023-03-01T04:04:22;4.03;;;2.20;;
4748;SDS011;2388;53.582;9.962;2023-03-01T04:06:47;5.20;;;2.83;;
4748;SDS011;2388;53.582;9.962;2023-03-01T04:09:13;2.93;;;2.57;;
4748;SDS011;2388;53.582;9.962;2023-03-01T04:11:39;2.07;;;1.90;;
4748;SDS011;2388;53.582;9.962;2023-03-01T04:14:04;2.40;;;2.30;;
4748;SDS011;2388;53.582;9.962;2023-03-01T04:16:30;2.63;;;2.37;;
4748;SDS011;2388;53.582;9.962;2023-03-01T04:18:55;2.40;;;2.30;;
4748;SDS011;2388;53.582;9.962;2023-03-01T04:21:21;2.93;;;2.73;;
4748;SDS011;2388;53.582;9.962;2023-03-01T04:23:47;2.50;;;2.30;;
4748;SDS011;2388;53.582;9.962;2023-03-01T04:26:13;2.40;;;1.97;;
4748;SDS011;2388;53.582;9.962;2023-03-01T04:28:40;2.20;;;1.97;;
4748;SDS011;2388;53.582;9.962;2023-03-01T04:31:10;4.53;;;2.00;;
4748;SDS011;2388;53.582;9.962;2023-03-01T04:33:38;2.20;;;1.75;;
4748;SDS011;2388;53.582;9.962;2023-03-01T04:36:09;2.50;;;1.80;;
4748;SDS011;2388;53.582;9.962;2023-03-01T04:38:36;2.20;;;1.95;;
4748;SDS011;2388;53.582;9.962;2023-03-01T04:41:03;2.33;;;1.92;;
4748;SDS011;2388;53.582;9.962;2023-03-01T04:43:33;2.67;;;2.47;;
4748;SDS011;2388;53.582;9.962;2023-03-01T04:46:02;2.30;;;2.10;;
4748;SDS011;2388;53.582;9.962;2023-03-01T04:48:31;2.03;;;1.73;;
4748;SDS011;2388;53.582;9.962;2023-03-01T04:50:57;2.80;;;1.98;;
4748;SDS011;2388;53.582;9.962;2023-03-01T04:53:23;2.20;;;2.10;;
4748;SDS011;2388;53.582;9.962;2023-03-01T04:55:49;2.60;;;2.30;;
4748;SDS011;2388;53.582;9.962;2023-03-01T04:58:15;1.90;;;1.77;;
4748;SDS011;2388;53.582;9.962;2023-03-01T05:00:41;2.63;;;2.40;;
4748;SDS011;2388;53.582;9.962;2023-03-01T05:03:07;2.57;;;2.37;;
4748;SDS011;2388;53.582;9.962;2023-03-01T05:05:35;3.45;;;2.33;;
4748;SDS011;2388;53.582;9.962;2023-03-01T05:08:03;3.40;;;2.70;;
4748;SDS011;2388;53.582;9.962;2023-03-01T05:10:33;3.55;;;2.50;;
4748;SDS011;2388;53.582;9.962;2023-03-01T05:13:01;2.65;;;2.28;;
4748;SDS011;2388;53.582;9.962;2023-03-01T05:15:29;2.95;;;2.72;;
4748;SDS011;2388;53.582;9.962;2023-03-01T05:17:56;4.60;;;2.38;;
4748;SDS011;2388;53.582;9.962;2023-03-01T05:20:24;2.90;;;2.70;;
4748;SDS011;2388;53.582;9.962;2023-03-01T05:22:51;2.95;;;2.72;;
4748;SDS011;2388;53.582;9.962;2023-03-01T05:25:17;2.70;;;2.42;;
4748;SDS011;2388;53.582;9.962;2023-03-01T05:27:43;3.50;;;2.70;;
4748;SDS011;2388;53.582;9.962;2023-03-01T05:30:09;4.90;;;2.97;;
4748;SDS011;2388;53.582;9.962;2023-03-01T05:32:39;3.67;;;3.03;;
4748;SDS011;2388;53.582;9.962;2023-03-01T05:35:06;4.55;;;3.08;;
4748;SDS011;2388;53.582;9.962;2023-03-01T05:37:31;3.07;;;2.77;;
4748;SDS011;2388;53.582;9.962;2023-03-01T05:39:57;3.10;;;2.80;;
4748;SDS011;2388;53.582;9.962;2023-03-01T05:42:22;3.53;;;3.23;;
4748;SDS011;2388;53.582;9.962;2023-03-01T05:44:48;3.43;;;2.80;;
4748;SDS011;2388;53.582;9.962;2023-03-01T05:47:13;3.73;;;3.30;;
4748;SDS011;2388;53.582;9.962;2023-03-01T05:49:39;6.70;;;3.00;;
4748;SDS011;2388;53.582;9.962;2023-03-01T05:52:04;2.70;;;2.50;;
4748;SDS011;2388;53.582;9.962;2023-03-01T05:54:30;4.77;;;3.03;;
4748;SDS011;2388;53.582;9.962;2023-03-01T05:56:55;8.10;;;3.57;;
4748;SDS011;2388;53.582;9.962;2023-03-01T05:59:21;5.20;;;2.83;;
4748;SDS011;2388;53.582;9.962;2023-03-01T06:01:47;7.63;;;2.93;;
4748;SDS011;2388;53.582;9.962;2023-03-01T06:04:12;4.43;;;3.13;;
4748;SDS011;2388;53.582;9.962;2023-03-01T06:06:38;4.47;;;2.13;;
4748;SDS011;2388;53.582;9.962;2023-03-01T06:09:04;3.27;;;3.00;;
4748;SDS011;2388;53.582;9.962;2023-03-01T06:11:33;3.10;;;2.90;;
4748;SDS011;2388;53.582;9.962;2023-03-01T06:13:59;6.30;;;2.55;;
4748;SDS011;2388;53.582;9.962;2023-03-01T06:16:25;6.83;;;3.00;;
4748;SDS011;2388;53.582;9.962;2023-03-01T06:18:50;4.20;;;3.10;;
4748;SDS011;2388;53.582;9.962;2023-03-01T06:21:16;2.80;;;2.47;;
4748;SDS011;2388;53.582;9.962;2023-03-01T06:23:41;4.37;;;2.90;;
4748;SDS011;2388;53.582;9.962;2023-03-01T06:26:07;6.90;;;2.53;;
4748;SDS011;2388;53.582;9.962;2023-03-01T06:28:33;4.70;;;2.45;;
4748;SDS011;2388;53.582;9.962;2023-03-01T06:30:59;3.60;;;2.13;;
4748;SDS011;2388;53.582;9.962;2023-03-01T06:33:25;2.67;;;2.50;;
4748;SDS011;2388;53.582;9.962;2023-03-01T06:35:51;5.90;;;2.33;;
4748;SDS011;2388;53.582;9.962;2023-03-01T06:38:19;2.83;;;2.55;;
4748;SDS011;2388;53.582;9.962;2023-03-01T06:40:44;2.90;;;2.70;;
4748;SDS011;2388;53.582;9.962;2023-03-01T06:43:16;12.23;;;3.13;;
4748;SDS011;2388;53.582;9.962;2023-03-01T06:45:41;4.40;;;2.50;;
4748;SDS011;2388;53.582;9.962;2023-03-01T06:48:07;10.60;;;3.33;;
4748;SDS011;2388;53.582;9.962;2023-03-01T06:50:35;3.33;;;2.67;;
4748;SDS011;2388;53.582;9.962;2023-03-01T06:53:01;2.38;;;2.17;;
4748;SDS011;2388;53.582;9.962;2023-03-01T06:55:27;7.43;;;2.60;;
4748;SDS011;2388;53.582;9.962;2023-03-01T06:57:55;2.37;;;1.70;;
4748;SDS011;2388;53.582;9.962;2023-03-01T07:00:22;4.13;;;2.70;;
4748;SDS011;2388;53.582;9.962;2023-03-01T07:02:48;3.10;;;2.80;;
4748;SDS011;2388;53.582;9.962;2023-03-01T07:05:13;3.70;;;2.60;;
4748;SDS011;2388;53.582;9.962;2023-03-01T07:07:39;8.47;;;3.50;;
4748;SDS011;2388;53.582;9.962;2023-03-01T07:10:04;4.80;;;2.67;;
4748;SDS011;2388;53.582;9.962;2023-03-01T07:12:31;2.67;;;2.45;;
4748;SDS011;2388;53.582;9.962;2023-03-01T07:14:56;4.53;;;3.50;;
4748;SDS011;2388;53.582;9.962;2023-03-01T07:17:21;4.87;;;2.80;;
4748;SDS011;2388;53.582;9.962;2023-03-01T07:19:47;3.60;;;2.57;;
4748;SDS011;2388;53.582;9.962;2023-03-01T07:22:13;5.90;;;3.00;;
4748;SDS011;2388;53.582;9.962;2023-03-01T07:24:38;3.20;;;2.90;;
4748;SDS011;2388;53.582;9.962;2023-03-01T07:27:03;6.27;;;3.07;;
4748;SDS011;2388;53.582;9.962;2023-03-01T07:29:29;4.00;;;3.23;;
4748;SDS011;2388;53.582;9.962;2023-03-01T07:31:55;4.80;;;3.03;;
4748;SDS011;2388;53.582;9.962;2023-03-01T07:34:20;6.43;;;3.20;;
4748;SDS011;2388;53.582;9.962;2023-03-01T07:36:46;8.03;;;2.87;;
4748;SDS011;2388;53.582;9.962;2023-03-01T07:39:12;5.43;;;3.33;;
4748;SDS011;2388;53.582;9.962;2023-03-01T07:41:38;13.83;;;3.93;;
4748;SDS011;2388;53.582;9.962;2023-03-01T07:44:03;4.17;;;3.77;;
4748;SDS011;2388;53.582;9.962;2023-03-01T07:46:29;6.00;;;3.70;;
4748;SDS011;2388;53.582;9.962;2023-03-01T07:48:54;4.93;;;3.80;;
4748;SDS011;2388;53.582;9.962;2023-03-01T07:51:20;8.00;;;3.97;;
4748;SDS011;2388;53.582;9.962;2023-03-01T07:53:46;4.67;;;4.27;;
4748;SDS011;2388;53.582;9.962;2023-03-01T07:56:13;6.07;;;4.05;;
4748;SDS011;2388;53.582;9.962;2023-03-01T07:58:41;9.88;;;4.90;;
4748;SDS011;2388;53.582;9.962;2023-03-01T08:01:09;12.38;;;5.13;;
4748;SDS011;2388;53.582;9.962;2023-03-01T08:03:39;8.70;;;5.53;;
4748;SDS011;2388;53.582;9.962;2023-03-01T08:06:06;11.20;;;4.73;;
4748;SDS011;2388;53.582;9.962;2023-03-01T08:08:33;8.57;;;5.75;;
4748;SDS011;2388;53.582;9.962;2023-03-01T08:10:59;12.60;;;5.70;;
4748;SDS011;2388;53.582;9.962;2023-03-01T08:13:26;11.45;;;6.82;;
4748;SDS011;2388;53.582;9.962;2023-03-01T08:15:52;7.40;;;6.32;;
4748;SDS011;2388;53.582;9.962;2023-03-01T08:18:18;13.67;;;6.90;;
4748;SDS011;2388;53.582;9.962;2023-03-01T08:20:45;10.55;;;7.05;;
4748;SDS011;2388;53.582;9.962;2023-03-01T08:23:11;11.57;;;7.33;;
4748;SDS011;2388;53.582;9.962;2023-03-01T08:25:37;8.60;;;7.03;;
4748;SDS011;2388;53.582;9.962;2023-03-01T08:28:03;15.38;;;9.10;;
4748;SDS011;2388;53.582;9.962;2023-03-01T08:30:30;8.80;;;7.55;;
4748;SDS011;2388;53.582;9.962;2023-03-01T08:32:56;10.70;;;8.53;;
4748;SDS011;2388;53.582;9.962;2023-03-01T08:35:21;15.10;;;9.33;;
4748;SDS011;2388;53.582;9.962;2023-03-01T08:37:47;14.23;;;9.43;;
4748;SDS011;2388;53.582;9.962;2023-03-01T08:40:13;19.95;;;10.50;;
4748;SDS011;2388;53.582;9.962;2023-03-01T08:42:39;15.80;;;10.70;;
4748;SDS011;2388;53.582;9.962;2023-03-01T08:45:07;14.93;;;9.50;;
4748;SDS011;2388;53.582;9.962;2023-03-01T08:47:34;13.35;;;8.45;;
4748;SDS011;2388;53.582;9.962;2023-03-01T08:50:00;17.70;;;9.97;;
4748;SDS011;2388;53.582;9.962;2023-03-01T08:52:26;12.10;;;8.97;;
4748;SDS011;2388;53.582;9.962;2023-03-01T08:54:52;12.90;;;8.67;;
4748;SDS011;2388;53.582;9.962;2023-03-01T08:57:17;10.70;;;7.73;;
4748;SDS011;2388;53.582;9.962;2023-03-01T08:59:43;13.90;;;8.77;;
4748;SDS011;2388;53.582;9.962;2023-03-01T09:02:11;13.70;;;8.93;;
4748;SDS011;2388;53.582;9.962;2023-03-01T09:04:38;18.33;;;11.50;;
4748;SDS011;2388;53.582;9.962;2023-03-01T09:07:04;14.33;;;9.30;;
4748;SDS011;2388;53.582;9.962;2023-03-01T09:09:30;12.10;;;9.27;;
4748;SDS011;2388;53.582;9.962;2023-03-01T09:11:55;17.43;;;10.43;;
4748;SDS011;2388;53.582;9.962;2023-03-01T09:14:21;12.00;;;9.13;;
4748;SDS011;2388;53.582;9.962;2023-03-01T09:16:47;9.90;;;7.90;;
4748;SDS011;2388;53.582;9.962;2023-03-01T09:19:12;12.87;;;8.37;;
4748;SDS011;2388;53.582;9.962;2023-03-01T09:21:38;10.37;;;8.27;;
4748;SDS011;2388;53.582;9.962;2023-03-01T09:24:04;11.13;;;8.70;;
4748;SDS011;2388;53.582;9.962;2023-03-01T09:26:29;11.17;;;9.30;;
4748;SDS011;2388;53.582;9.962;2023-03-01T09:28:55;12.20;;;9.67;;
4748;SDS011;2388;53.582;9.962;2023-03-01T09:31:21;13.83;;;9.67;;
4748;SDS011;2388;53.582;9.962;2023-03-01T09:33:49;14.60;;;9.57;;
4748;SDS011;2388;53.582;9.962;2023-03-01T09:36:17;11.77;;;8.60;;
4748;SDS011;2388;53.582;9.962;2023-03-01T09:38:45;12.70;;;8.50;;
4748;SDS011;2388;53.582;9.962;2023-03-01T09:41:18;15.13;;;9.10;;
4748;SDS011;2388;53.582;9.962;2023-03-01T09:44:21;12.47;;;8.00;;
4748;SDS011;2388;53.582;9.962;2023-03-01T09:47:01;10.07;;;7.63;;
4748;SDS011;2388;53.582;9.962;2023-03-01T09:49:28;10.90;;;7.80;;
4748;SDS011;2388;53.582;9.962;2023-03-01T09:54:47;8.40;;;7.43;;
4748;SDS011;2388;53.582;9.962;2023-03-01T09:59:47;17.40;;;8.60;;
4748;SDS011;2388;53.582;9.962;2023-03-01T10:02:38;10.93;;;7.37;;
4748;SDS011;2388;53.582;9.962;2023-03-01T10:10:36;11.47;;;7.67;;
4748;SDS011;2388;53.582;9.962;2023-03-01T10:13:26;11.47;;;7.87;;
4748;SDS011;2388;53.582;9.962;2023-03-01T10:15:53;10.47;;;7.40;;
4748;SDS011;2388;53.582;9.962;2023-03-01T10:18:23;9.77;;;6.60;;
4748;SDS011;2388;53.582;9.962;2023-03-01T10:20:56;14.47;;;8.10;;
4748;SDS011;2388;53.582;9.962;2023-03-01T10:23:25;12.90;;;7.20;;
4748;SDS011;2388;53.582;9.962;2023-03-01T10:29:03;10.53;;;7.53;;
4748;SDS011;2388;53.582;9.962;2023-03-01T10:31:49;11.50;;;7.23;;
4748;SDS011;2388;53.582;9.962;2023-03-01T10:34:21;10.53;;;7.50;;
4748;SDS011;2388;53.582;9.962;2023-03-01T10:36:53;10.10;;;6.70;;
4748;SDS011;2388;53.582;9.962;2023-03-01T10:39:23;8.33;;;6.40;;
4748;SDS011;2388;53.582;9.962;2023-03-01T10:42:03;11.27;;;7.23;;
4748;SDS011;2388;53.582;9.962;2023-03-01T10:44:40;7.87;;;6.40;;
4748;SDS011;2388;53.582;9.962;2023-03-01T10:47:08;8.27;;;6.00;;
4748;SDS011;2388;53.582;9.962;2023-03-01T10:49:52;6.53;;;5.90;;
4748;SDS011;2388;53.582;9.962;2023-03-01T10:52:19;10.30;;;6.70;;
4748;SDS011;2388;53.582;9.962;2023-03-01T10:54:51;8.33;;;6.83;;
4748;SDS011;2388;53.582;9.962;2023-03-01T10:57:28;6.27;;;5.13;;
4748;SDS011;2388;53.582;9.962;2023-03-01T11:02:50;8.67;;;6.90;;
4748;SDS011;2388;53.582;9.962;2023-03-01T11:05:26;9.30;;;7.23;;
4748;SDS011;2388;53.582;9.962;2023-03-01T11:07:55;10.23;;;7.80;;
4748;SDS011;2388;53.582;9.962;2023-03-01T11:10:23;11.73;;;7.83;;
4748;SDS011;2388;53.582;9.962;2023-03-01T11:12:54;14.70;;;8.73;;
4748;SDS011;2388;53.582;9.962;2023-03-01T11:19:01;9.40;;;5.13;;
4748;SDS011;2388;53.582;9.962;2023-03-01T11:21:40;7.00;;;5.00;;
4748;SDS011;2388;53.582;9.962;2023-03-01T11:24:20;5.93;;;5.33;;
4748;SDS011;2388;53.582;9.962;2023-03-01T11:27:14;8.57;;;6.17;;
4748;SDS011;2388;53.582;9.962;2023-03-01T11:29:48;7.60;;;5.53;;
4748;SDS011;2388;53.582;9.962;2023-03-01T11:32:23;9.17;;;5.63;;
4748;SDS011;2388;53.582;9.962;2023-03-01T11:34:53;11.10;;;6.13;;
4748;SDS011;2388;53.582;9.962;2023-03-01T11:37:45;6.63;;;5.30;;
4748;SDS011;2388;53.582;9.962;2023-03-01T11:40:23;5.60;;;5.10;;
4748;SDS011;2388;53.582;9.962;2023-03-01T11:45:24;5.40;;;4.70;;
4748;SDS011;2388;53.582;9.962;2023-03-01T11:48:13;6.27;;;5.00;;
4748;SDS011;2388;53.582;9.962;2023-03-01T11:51:05;5.93;;;5.17;;
4748;SDS011;2388;53.582;9.962;2023-03-01T11:53:48;6.13;;;4.50;;
4748;SDS011;2388;53.582;9.962;2023-03-01T11:56:24;5.30;;;4.77;;
4748;SDS011;2388;53.582;9.962;2023-03-01T11:59:09;11.17;;;5.07;;
4748;SDS011;2388;53.582;9.962;2023-03-01T12:07:07;6.47;;;5.07;;
4748;SDS011;2388;53.582;9.962;2023-03-01T12:10:06;9.27;;;4.33;;
4748;SDS011;2388;53.582;9.962;2023-03-01T12:13:08;6.77;;;4.97;;
4748;SDS011;2388;53.582;9.962;2023-03-01T12:15:58;5.40;;;4.90;;
4748;SDS011;2388;53.582;9.962;2023-03-01T12:18:38;5.73;;;4.93;;
4748;SDS011;2388;53.582;9.962;2023-03-01T12:26:25;8.33;;;5.23;;
4748;SDS011;2388;53.582;9.962;2023-03-01T12:31:44;6.23;;;4.60;;
4748;SDS011;2388;53.582;9.962;2023-03-01T12:46:01;5.40;;;4.43;;
4748;SDS011;2388;53.582;9.962;2023-03-01T12:51:35;8.10;;;5.20;;
4748;SDS011;2388;53.582;9.962;2023-03-01T12:54:05;5.10;;;4.40;;
4748;SDS011;2388;53.582;9.962;2023-03-01T12:56:47;6.23;;;4.23;;
4748;SDS011;2388;53.582;9.962;2023-03-01T13:02:19;4.70;;;4.30;;
4748;SDS011;2388;53.582;9.962;2023-03-01T13:07:31;4.97;;;4.47;;
4748;SDS011;2388;53.582;9.962;2023-03-01T13:10:26;3.47;;;3.20;;
4748;SDS011;2388;53.582;9.962;2023-03-01T13:13:01;3.13;;;2.90;;
4748;SDS011;2388;53.582;9.962;2023-03-01T13:15:34;2.90;;;2.57;;
4748;SDS011;2388;53.582;9.962;2023-03-01T13:18:02;3.60;;;3.20;;
4748;SDS011;2388;53.582;9.962;2023-03-01T13:20:50;4.20;;;3.50;;
4748;SDS011;2388;53.582;9.962;2023-03-01T13:33:50;4.20;;;3.80;;
4748;SDS011;2388;53.582;9.962;2023-03-01T13:39:25;6.43;;;4.80;;
4748;SDS011;2388;53.582;9.962;2023-03-01T13:42:03;4.70;;;4.30;;
4748;SDS011;2388;53.582;9.962;2023-03-01T13:44:48;5.50;;;4.50;;
4748;SDS011;2388;53.582;9.962;2023-03-01T13:47:15;5.03;;;4.40;;
4748;SDS011;2388;53.582;9.962;2023-03-01T13:55:00;4.57;;;4.00;;
4748;SDS011;2388;53.582;9.962;2023-03-01T13:57:30;5.23;;;3.97;;
4748;SDS011;2388;53.582;9.962;2023-03-01T13:59:59;7.20;;;4.10;;
4748;SDS011;2388;53.582;9.962;2023-03-01T14:02:24;6.03;;;3.60;;
4748;SDS011;2388;53.582;9.962;2023-03-01T14:05:00;4.10;;;3.70;;
4748;SDS011;2388;53.582;9.962;2023-03-01T14:07:26;4.30;;;3.90;;
4748;SDS011;2388;53.582;9.962;2023-03-01T14:10:02;3.40;;;3.10;;
4748;SDS011;2388;53.582;9.962;2023-03-01T14:15:31;3.80;;;3.50;;
4748;SDS011;2388;53.582;9.962;2023-03-01T14:20:40;5.83;;;4.03;;
4748;SDS011;2388;53.582;9.962;2023-03-01T14:23:28;4.20;;;3.80;;
4748;SDS011;2388;53.582;9.962;2023-03-01T14:25:55;6.43;;;3.20;;
4748;SDS011;2388;53.582;9.962;2023-03-01T14:28:29;3.40;;;3.13;;
4748;SDS011;2388;53.582;9.962;2023-03-01T14:30:58;3.10;;;2.80;;
4748;SDS011;2388;53.582;9.962;2023-03-01T14:33:26;3.60;;;3.30;;
4748;SDS011;2388;53.582;9.962;2023-03-01T14:36:12;3.30;;;3.00;;
4748;SDS011;2388;53.582;9.962;2023-03-01T14:38:38;3.80;;;3.50;;
4748;SDS011;2388;53.582;9.962;2023-03-01T14:41:13;6.00;;;3.70;;
4748;SDS011;2388;53.582;9.962;2023-03-01T14:43:53;3.93;;;3.47;;
4748;SDS011;2388;53.582;9.962;2023-03-01T14:46:24;4.90;;;2.80;;
4748;SDS011;2388;53.582;9.962;2023-03-01T14:51:39;6.27;;;4.23;;
4748;SDS011;2388;53.582;9.962;2023-03-01T14:54:27;4.80;;;4.37;;
4748;SDS011;2388;53.582;9.962;2023-03-01T14:57:12;4.20;;;3.50;;
4748;SDS011;2388;53.582;9.962;2023-03-01T14:59:44;5.80;;;3.60;;
4748;SDS011;2388;53.582;9.962;2023-03-01T15:02:13;4.40;;;3.87;;
4748;SDS011;2388;53.582;9.962;2023-03-01T15:04:48;6.43;;;4.27;;
4748;SDS011;2388;53.582;9.962;2023-03-01T15:07:16;8.13;;;5.17;;
4748;SDS011;2388;53.582;9.962;2023-03-01T15:09:42;4.23;;;3.83;;
4748;SDS011;2388;53.582;9.962;2023-03-01T15:12:24;4.87;;;3.60;;
4748;SDS011;2388;53.582;9.962;2023-03-01T15:14:50;4.53;;;4.13;;
4748;SDS011;2388;53.582;9.962;2023-03-01T15:20:00;9.50;;;7.50;;
4748;SDS011;2388;53.582;9.962;2023-03-01T15:22:29;8.30;;;5.07;;
4748;SDS011;2388;53.582;9.962;2023-03-01T15:24:54;4.73;;;4.20;;
4748;SDS011;2388;53.582;9.962;2023-03-01T15:27:21;3.77;;;3.40;;
4748;SDS011;2388;53.582;9.962;2023-03-01T15:29:50;6.20;;;4.10;;
4748;SDS011;2388;53.582;9.962;2023-03-01T15:32:25;5.87;;;4.30;;
4748;SDS011;2388;53.582;9.962;2023-03-01T15:34:56;4.87;;;4.40;;
4748;SDS011;2388;53.582;9.962;2023-03-01T15:37:39;5.40;;;4.80;;
4748;SDS011;2388;53.582;9.962;2023-03-01T15:42:46;5.33;;;4.83;;
4748;SDS011;2388;53.582;9.962;2023-03-01T15:47:41;6.63;;;5.40;;
4748;SDS011;2388;53.582;9.962;2023-03-01T15:50:17;5.60;;;5.00;;
4748;SDS011;2388;53.582;9.962;2023-03-01T15:52:54;6.73;;;5.80;;
4748;SDS011;2388;53.582;9.962;2023-03-01T15:55:21;8.67;;;5.87;;
4748;SDS011;2388;53.582;9.962;2023-03-01T16:00:30;9.30;;;6.67;;
4748;SDS011;2388;53.582;9.962;2023-03-01T16:02:55;7.43;;;6.20;;
4748;SDS011;2388;53.582;9.962;2023-03-01T16:07:49;16.53;;;10.73;;
4748;SDS011;2388;53.582;9.962;2023-03-01T16:10:15;10.57;;;8.00;;
4748;SDS011;2388;53.582;9.962;2023-03-01T16:12:41;15.33;;;8.30;;
4748;SDS011;2388;53.582;9.962;2023-03-01T16:15:20;9.13;;;7.60;;
4748;SDS011;2388;53.582;9.962;2023-03-01T16:17:47;8.10;;;6.77;;
4748;SDS011;2388;53.582;9.962;2023-03-01T16:20:13;9.20;;;6.63;;
4748;SDS011;2388;53.582;9.962;2023-03-01T16:22:40;10.30;;;7.57;;
4748;SDS011;2388;53.582;9.962;2023-03-01T16:25:08;13.27;;;8.10;;
4748;SDS011;2388;53.582;9.962;2023-03-01T16:27:38;9.07;;;6.90;;
4748;SDS011;2388;53.582;9.962;2023-03-01T16:30:04;10.67;;;6.83;;
4748;SDS011;2388;53.582;9.962;2023-03-01T16:32:31;11.23;;;7.50;;
4748;SDS011;2388;53.582;9.962;2023-03-01T16:34:56;8.80;;;7.30;;
4748;SDS011;2388;53.582;9.962;2023-03-01T16:37:22;9.67;;;7.10;;
4748;SDS011;2388;53.582;9.962;2023-03-01T16:39:47;10.03;;;6.30;;
4748;SDS011;2388;53.582;9.962;2023-03-01T16:42:15;8.20;;;6.47;;
4748;SDS011;2388;53.582;9.962;2023-03-01T16:44:41;7.50;;;5.60;;
4748;SDS011;2388;53.582;9.962;2023-03-01T16:47:07;6.20;;;4.90;;
4748;SDS011;2388;53.582;9.962;2023-03-01T16:49:32;8.10;;;5.20;;
4748;SDS011;2388;53.582;9.962;2023-03-01T16:51:58;6.23;;;5.17;;
4748;SDS011;2388;53.582;9.962;2023-03-01T16:54:24;7.23;;;5.20;;
4748;SDS011;2388;53.582;9.962;2023-03-01T16:56:49;26.73;;;14.50;;
4748;SDS011;2388;53.582;9.962;2023-03-01T16:59:15;22.13;;;12.60;;
4748;SDS011;2388;53.582;9.962;2023-03-01T17:01:41;33.90;;;18.70;;
4748;SDS011;2388;53.582;9.962;2023-03-01T17:04:09;19.93;;;11.10;;
4748;SDS011;2388;53.582;9.962;2023-03-01T17:06:36;18.63;;;12.43;;
4748;SDS011;2388;53.582;9.962;2023-03-01T17:09:01;34.80;;;18.27;;
4748;SDS011;2388;53.582;9.962;2023-03-01T17:11:27;25.77;;;13.63;;